Time;durP1;ratioP1;P1;durP2;ratioP2;P2;SDS_P1;SDS_P2;PMS_P1;PMS_P2;Temp;Humidity;BMP_temperature;BMP_pressure;BME280_temperature;BME280_humidity;BME280_pressure;Samples;Min_cycle;Max_cycle;Signal;HPM_P1;HPM_P2
2023/05/12 00:00:30;;;;;;;0.00;0.00;;;4.80;99.90;;;;;;25966321;22;20011;-58
2023/05/12 00:10:34;;;;;;;0.73;0.00;;;4.80;99.90;;;;;;25938436;22;20053;-59
2023/05/12 00:20:35;;;;;;;0.55;0.00;;;4.80;99.90;;;;;;25965260;22;20003;-46
2023/05/12 00:30:37;;;;;;;0.47;0.00;;;4.80;99.90;;;;;;25938068;22;20003;-45
2023/05/12 00:40:40;;;;;;;5.25;0.00;;;4.70;99.90;;;;;;25965212;22;20000;-60
2023/05/12 00:50:41;;;;;;;0.00;0.00;;;4.80;99.90;;;;;;25964723;22;20407;-60
2023/05/12 01:00:43;;;;;;;0.00;0.00;;;4.70;99.90;;;;;;25964594;22;20427;-59
2023/05/12 01:10:46;;;;;;;0.10;0.00;;;4.80;99.90;;;;;;25912505;22;20038;-58
2023/05/12 01:20:52;;;;;;;0.00;0.00;;;4.80;99.90;;;;;;25941692;22;20030;-50
2023/05/12 01:30:54;;;;;;;0.10;0.00;;;4.90;99.90;;;;;;25944534;22;19999;-59
2023/05/12 01:40:56;;;;;;;0.00;0.00;;;4.90;99.90;;;;;;25971874;22;20008;-58
2023/05/12 01:51:00;;;;;;;0.00;0.00;;;4.90;99.90;;;;;;25944240;22;20020;-59
2023/05/12 02:01:02;;;;;;;0.00;0.00;;;5.00;99.90;;;;;;25943614;22;20373;-58
2023/05/12 02:11:08;;;;;;;0.00;0.00;;;5.00;99.90;;;;;;25943451;22;20054;-58
2023/05/12 02:21:11;;;;;;;0.00;0.00;;;5.10;99.90;;;;;;25942834;22;20053;-58
2023/05/12 02:31:12;;;;;;;0.08;0.00;;;5.10;99.90;;;;;;25969425;22;20004;-50
2023/05/12 02:41:14;;;;;;;0.00;0.00;;;5.10;99.90;;;;;;25942348;22;20003;-58
2023/05/12 02:51:16;;;;;;;0.00;0.00;;;5.10;99.90;;;;;;25941518;22;20012;-48
2023/05/12 03:01:18;;;;;;;0.10;0.00;;;5.20;99.90;;;;;;25968534;22;20512;-58
2023/05/12 03:11:21;;;;;;;0.10;0.00;;;5.10;99.90;;;;;;25940932;22;20007;-51
2023/05/12 03:21:22;;;;;;;0.00;0.00;;;5.10;99.90;;;;;;25967566;22;20008;-47
2023/05/12 03:31:24;;;;;;;0.00;0.00;;;5.10;99.90;;;;;;25938779;22;20012;-59
2023/05/12 03:41:27;;;;;;;0.05;0.00;;;5.10;99.90;;;;;;25938308;22;20029;-58
2023/05/12 03:51:29;;;;;;;0.00;0.00;;;5.10;99.90;;;;;;25966733;22;20019;-50
2023/05/12 04:01:31;;;;;;;0.10;0.00;;;5.10;99.90;;;;;;25966039;22;20007;-51
2023/05/12 04:11:32;;;;;;;0.00;0.00;;;5.10;99.90;;;;;;25966492;22;20069;-48
2023/05/12 04:21:35;;;;;;;0.00;0.00;;;5.10;99.90;;;;;;25913529;22;20053;-51
2023/05/12 04:31:38;;;;;;;0.00;0.00;;;5.20;99.90;;;;;;25965383;22;20020;-57
2023/05/12 04:41:40;;;;;;;0.00;0.00;;;5.30;99.90;;;;;;25940266;22;20004;-50
2023/05/12 04:51:43;;;;;;;0.52;0.10;;;5.40;99.90;;;;;;25940268;22;20020;-58
2023/05/12 05:01:45;;;;;;;0.10;0.00;;;5.50;99.90;;;;;;25946212;22;20011;-58
2023/05/12 05:11:47;;;;;;;0.00;0.00;;;5.60;99.90;;;;;;25945817;22;20004;-49
2023/05/12 05:21:49;;;;;;;1.20;0.00;;;5.70;99.90;;;;;;25945752;22;20010;-46
2023/05/12 05:31:51;;;;;;;0.00;0.00;;;5.80;99.90;;;;;;25945398;22;20026;-51
2023/05/12 05:41:53;;;;;;;0.45;0.03;;;5.90;99.90;;;;;;25971795;22;20004;-59
2023/05/12 05:51:54;;;;;;;0.00;0.00;;;6.00;99.90;;;;;;25944169;22;20389;-49
2023/05/12 06:01:57;;;;;;;0.00;0.00;;;6.20;99.90;;;;;;25944537;22;20435;-51
2023/05/12 06:11:58;;;;;;;0.00;0.00;;;6.30;99.90;;;;;;25942604;22;20049;-51
2023/05/12 06:22:00;;;;;;;0.20;0.00;;;6.40;99.90;;;;;;25942888;22;20073;-49
2023/05/12 06:32:02;;;;;;;0.00;0.00;;;6.60;99.90;;;;;;25968777;22;20008;-49
2023/05/12 06:42:04;;;;;;;0.00;0.00;;;7.00;99.90;;;;;;25969416;22;20004;-47
2023/05/12 06:52:15;;;;;;;0.47;0.10;;;7.40;99.90;;;;;;25970037;22;20341;-48
2023/05/12 07:02:17;;;;;;;0.00;0.00;;;8.20;99.90;;;;;;25968596;22;20007;-58
2023/05/12 07:12:19;;;;;;;0.00;0.00;;;8.70;99.90;;;;;;25968092;22;20004;-51
2023/05/12 07:22:20;;;;;;;0.00;0.00;;;9.20;99.90;;;;;;25967142;22;20323;-51
2023/05/12 07:32:22;;;;;;;0.00;0.00;;;9.20;99.90;;;;;;25966190;22;20054;-50
2023/05/12 07:42:24;;;;;;;0.00;0.00;;;9.40;99.90;;;;;;25967021;22;20007;-51
2023/05/12 07:52:25;;;;;;;0.30;0.00;;;10.20;99.90;;;;;;25966475;22;20023;-50
2023/05/12 08:02:27;;;;;;;0.10;0.00;;;11.20;99.90;;;;;;25966330;22;20007;-51
2023/05/12 08:12:28;;;;;;;0.80;0.10;;;11.60;99.90;;;;;;25966166;22;20300;-50
2023/05/12 08:22:30;;;;;;;0.00;0.00;;;11.80;99.90;;;;;;25965592;22;20006;-51
2023/05/12 08:32:32;;;;;;;0.00;0.00;;;11.10;99.90;;;;;;25965546;22;20069;-50
2023/05/12 08:42:39;;;;;;;0.15;0.08;;;10.20;99.90;;;;;;25966999;22;20000;-59
2023/05/12 08:52:41;;;;;;;0.00;0.00;;;9.70;99.90;;;;;;26007569;22;20061;-51
2023/05/12 09:02:43;;;;;;;0.20;0.17;;;9.30;99.90;;;;;;25963880;22;20011;-61
2023/05/12 09:12:48;;;;;;;0.45;0.10;;;9.40;99.90;;;;;;25964896;22;20512;-59
2023/05/12 09:22:49;;;;;;;0.22;0.10;;;9.30;99.90;;;;;;25964041;22;20007;-59
2023/05/12 09:32:51;;;;;;;0.08;0.00;;;9.50;99.90;;;;;;25964328;22;19999;-60
2023/05/12 09:42:52;;;;;;;0.00;0.00;;;9.90;99.90;;;;;;25968941;22;20077;-49
2023/05/12 09:52:54;;;;;;;1.25;0.22;;;10.30;99.90;;;;;;26013801;22;20427;-46
2023/05/12 10:02:57;;;;;;;0.10;0.05;;;10.30;99.90;;;;;;25969760;22;20004;-50
2023/05/12 10:12:59;;;;;;;0.00;0.00;;;10.40;99.90;;;;;;25943647;22;20373;-59
2023/05/12 10:23:01;;;;;;;0.00;0.00;;;10.60;99.90;;;;;;25970020;22;20004;-59
2023/05/12 10:33:04;;;;;;;0.10;0.00;;;10.10;99.90;;;;;;25969601;22;20457;-59
2023/05/12 10:43:06;;;;;;;0.30;0.30;;;9.90;99.90;;;;;;25969056;22;20038;-57
2023/05/12 10:53:10;;;;;;;0.30;0.30;;;10.00;99.90;;;;;;25968855;22;20004;-51
2023/05/12 11:03:21;;;;;;;0.10;0.10;;;9.30;99.90;;;;;;25968282;22;20004;-51
2023/05/12 11:13:24;;;;;;;1.23;0.10;;;8.80;99.90;;;;;;26010346;22;20004;-47
2023/05/12 11:23:31;;;;;;;0.40;0.10;;;8.40;99.90;;;;;;25967552;22;20057;-49
2023/05/12 11:33:32;;;;;;;0.00;0.00;;;9.10;99.90;;;;;;26009544;22;20007;-48
2023/05/12 11:43:34;;;;;;;3.42;0.10;;;10.10;99.90;;;;;;25966942;22;20015;-60
2023/05/12 11:53:39;;;;;;;0.20;0.00;;;11.50;99.90;;;;;;25966860;22;20004;-61
2023/05/12 12:03:48;;;;;;;1.35;0.10;;;12.20;99.90;;;;;;25965018;22;20003;-49
2023/05/12 12:13:55;;;;;;;0.10;0.10;;;11.90;99.90;;;;;;25938562;22;20061;-51
2023/05/12 12:23:57;;;;;;;0.30;0.20;;;11.80;99.90;;;;;;26008265;22;19999;-49
2023/05/12 12:33:59;;;;;;;0.20;0.20;;;11.40;99.90;;;;;;25965541;22;20449;-47
2023/05/12 12:44:01;;;;;;;0.00;0.00;;;11.10;99.90;;;;;;25967272;22;20012;-50
2023/05/12 12:54:04;;;;;;;0.10;0.10;;;10.80;99.90;;;;;;25965029;22;20027;-62
2023/05/12 13:04:06;;;;;;;96.82;4.25;;;10.50;99.90;;;;;;25963792;22;20015;-52
2023/05/12 13:14:07;;;;;;;1.80;0.70;;;9.90;99.90;;;;;;25968073;22;20011;-64
2023/05/12 13:24:09;;;;;;;0.55;0.22;;;9.30;99.90;;;;;;25972813;22;20061;-49
2023/05/12 13:34:12;;;;;;;0.10;0.10;;;9.30;99.90;;;;;;25971043;22;20069;-52
2023/05/12 13:44:13;;;;;;;0.10;0.00;;;9.30;99.90;;;;;;25971398;22;20008;-50
2023/05/12 13:54:15;;;;;;;0.00;0.00;;;9.70;99.90;;;;;;25971739;22;20008;-50
2023/05/12 14:04:17;;;;;;;0.10;0.10;;;11.20;99.90;;;;;;25970074;22;20435;-60
2023/05/12 14:14:18;;;;;;;0.35;0.35;;;12.00;99.90;;;;;;25970577;22;20077;-50
2023/05/12 14:24:20;;;;;;;1.25;1.00;;;11.60;99.90;;;;;;25969597;22;20004;-51
2023/05/12 14:34:22;;;;;;;0.98;0.80;;;10.70;99.90;;;;;;25969738;22;20374;-63
2023/05/12 14:44:24;;;;;;;0.38;0.30;;;9.60;99.90;;;;;;25969074;22;20069;-60
2023/05/12 14:54:25;;;;;;;0.10;0.10;;;8.80;99.90;;;;;;25970548;22;20011;-46
2023/05/12 15:04:27;;;;;;;0.35;0.10;;;8.20;99.90;;;;;;25968645;22;20008;-59
2023/05/12 15:14:29;;;;;;;0.20;0.05;;;8.00;99.90;;;;;;25940688;22;20008;-58
2023/05/12 15:24:30;;;;;;;0.17;0.10;;;8.10;99.90;;;;;;25967817;22;20000;-58
2023/05/12 15:34:33;;;;;;;0.90;0.40;;;8.20;99.90;;;;;;25967145;22;20312;-48
2023/05/12 15:44:35;;;;;;;1.00;0.65;;;8.50;99.90;;;;;;25966374;22;20061;-51
2023/05/12 15:54:37;;;;;;;2.13;1.83;;;8.90;99.90;;;;;;25966783;22;20369;-58
2023/05/12 16:04:39;;;;;;;4.57;2.42;;;9.10;99.90;;;;;;25966165;22;20504;-46
2023/05/12 16:14:41;;;;;;;1.63;1.50;;;9.40;99.90;;;;;;25937745;22;20008;-59
2023/05/12 16:24:42;;;;;;;1.50;1.40;;;9.70;99.90;;;;;;25965521;22;20461;-49
2023/05/12 16:34:47;;;;;;;1.00;0.90;;;9.80;99.90;;;;;;25964446;22;20007;-48
2023/05/12 16:44:53;;;;;;;2.03;1.83;;;9.60;99.90;;;;;;25966806;22;20012;-51
2023/05/12 16:54:56;;;;;;;1.77;1.65;;;9.30;99.90;;;;;;26015894;22;20461;-51
2023/05/12 17:04:58;;;;;;;2.30;2.00;;;9.00;99.90;;;;;;25973490;22;20008;-50
2023/05/12 17:14:59;;;;;;;1.63;1.35;;;8.80;99.90;;;;;;25974458;22;20500;-59
2023/05/12 17:25:01;;;;;;;1.35;1.25;;;8.70;99.90;;;;;;25972601;22;20008;-49
2023/05/12 17:35:03;;;;;;;3.15;1.85;;;8.50;99.90;;;;;;25943721;22;20451;-58
2023/05/12 17:45:05;;;;;;;2.53;2.33;;;8.40;99.90;;;;;;25971542;22;20064;-58
2023/05/12 17:55:08;;;;;;;3.38;2.35;;;8.10;99.90;;;;;;25971547;22;20015;-49
2023/05/12 18:05:10;;;;;;;3.92;2.22;;;7.80;99.90;;;;;;25943354;22;20000;-58
2023/05/12 18:15:12;;;;;;;3.53;2.40;;;7.60;99.90;;;;;;25970686;22;20008;-49
2023/05/12 18:25:13;;;;;;;4.07;3.60;;;7.40;99.90;;;;;;25969992;22;20008;-58
2023/05/12 18:35:15;;;;;;;3.42;2.95;;;7.20;99.90;;;;;;25969693;22;20065;-51
2023/05/12 18:45:17;;;;;;;4.22;3.17;;;7.10;99.90;;;;;;25968343;22;20012;-52
2023/05/12 18:55:18;;;;;;;4.78;4.28;;;7.00;99.90;;;;;;25969077;22;20007;-58
2023/05/12 19:05:20;;;;;;;4.63;3.80;;;6.90;99.90;;;;;;25967768;22;20010;-52
2023/05/12 19:15:22;;;;;;;7.82;5.68;;;6.60;99.90;;;;;;25966895;22;20030;-47
2023/05/12 19:25:23;;;;;;;8.93;6.55;;;6.10;99.90;;;;;;25967724;22;20008;-53
2023/05/12 19:35:25;;;;;;;11.55;7.70;;;5.70;99.90;;;;;;25966055;22;20438;-48
2023/05/12 19:45:28;;;;;;;12.15;8.23;;;5.50;99.90;;;;;;25966626;22;20386;-58
2023/05/12 19:55:29;;;;;;;10.90;7.55;;;5.50;99.90;;;;;;25966429;22;20504;-51
2023/05/12 20:05:35;;;;;;;8.13;5.28;;;5.50;99.90;;;;;;25938876;22;20007;-50
2023/05/12 20:15:38;;;;;;;9.05;5.93;;;5.50;99.90;;;;;;25965781;22;20080;-51
2023/05/12 20:25:43;;;;;;;6.80;4.90;;;5.60;99.90;;;;;;25965039;22;20004;-52
2023/05/12 20:35:45;;;;;;;9.25;4.88;;;5.70;99.90;;;;;;25964874;22;20371;-47
2023/05/12 20:45:47;;;;;;;4.47;3.00;;;5.80;99.90;;;;;;25992458;22;20482;-51
2023/05/12 20:55:49;;;;;;;3.17;2.65;;;5.80;99.90;;;;;;25964248;22;20331;-51
2023/05/12 21:05:50;;;;;;;4.30;2.38;;;6.00;99.90;;;;;;25964459;22;20010;-51
2023/05/12 21:15:52;;;;;;;4.15;2.75;;;6.10;99.90;;;;;;25964084;22;20055;-58
2023/05/12 21:25:54;;;;;;;4.88;3.10;;;6.20;99.90;;;;;;25964092;22;20004;-51
2023/05/12 21:35:56;;;;;;;6.35;4.22;;;6.20;99.90;;;;;;25963658;22;20004;-51
2023/05/12 21:46:04;;;;;;;7.18;5.60;;;6.20;99.90;;;;;;25971956;22;20034;-51
2023/05/12 21:56:06;;;;;;;8.25;5.00;;;6.20;99.90;;;;;;26013537;22;19999;-48
2023/05/12 22:06:08;;;;;;;7.43;5.82;;;6.20;99.90;;;;;;25970943;22;20008;-50
2023/05/12 22:16:10;;;;;;;3.50;2.30;;;6.10;99.90;;;;;;25943638;22;20073;-51
2023/05/12 22:26:11;;;;;;;2.67;2.40;;;6.10;99.90;;;;;;25970131;22;20015;-51
2023/05/12 22:36:14;;;;;;;3.50;2.40;;;6.10;99.90;;;;;;25970069;22;20069;-49
2023/05/12 22:46:15;;;;;;;5.57;3.05;;;6.00;99.90;;;;;;25969274;22;20023;-52
2023/05/12 22:56:17;;;;;;;2.10;1.60;;;6.00;99.90;;;;;;25969210;22;20465;-50
2023/05/12 23:06:19;;;;;;;2.10;1.00;;;6.00;99.90;;;;;;25966510;22;20008;-57
2023/05/12 23:16:22;;;;;;;2.15;0.80;;;5.90;99.90;;;;;;25968295;22;20011;-49
2023/05/12 23:26:24;;;;;;;1.52;0.82;;;5.90;99.90;;;;;;25967766;22;20004;-51
2023/05/12 23:36:25;;;;;;;2.38;1.00;;;5.80;99.90;;;;;;25967377;22;20004;-49
2023/05/12 23:46:27;;;;;;;5.35;1.60;;;5.70;99.90;;;;;;25966878;22;20016;-50
2023/05/12 23:56:29;;;;;;;9.05;1.88;;;5.70;99.90;;;;;;25966455;22;20030;-49
